sensor_id;sensor_type;location;lat;lon;timestamp;temperature;humidity
10443;DHT22;5269;51.146;16.986;2024-03-29T00:01:16;8.90;1.00
10443;DHT22;5269;51.146;16.986;2024-03-29T00:03:44;8.80;1.00
10443;DHT22;5269;51.146;16.986;2024-03-29T00:06:11;8.80;1.00
10443;DHT22;5269;51.146;16.986;2024-03-29T00:08:39;8.70;1.00
10443;DHT22;5269;51.146;16.986;2024-03-29T00:11:06;8.70;1.00
10443;DHT22;5269;51.146;16.986;2024-03-29T00:13:35;8.70;1.00
10443;DHT22;5269;51.146;16.986;2024-03-29T00:16:03;8.70;1.00
10443;DHT22;5269;51.146;16.986;2024-03-29T00:18:30;8.70;1.00
10443;DHT22;5269;51.146;16.986;2024-03-29T00:20:57;8.70;1.00
10443;DHT22;5269;51.146;16.986;2024-03-29T00:23:24;8.70;1.00
10443;DHT22;5269;51.146;16.986;2024-03-29T00:25:51;8.60;1.00
10443;DHT22;5269;51.146;16.986;2024-03-29T00:28:18;8.70;1.00
10443;DHT22;5269;51.146;16.986;2024-03-29T00:30:49;8.70;1.00
10443;DHT22;5269;51.146;16.986;2024-03-29T00:33:16;8.60;1.00
10443;DHT22;5269;51.146;16.986;2024-03-29T00:35:43;8.60;1.00
10443;DHT22;5269;51.146;16.986;2024-03-29T00:38:10;8.50;1.00
10443;DHT22;5269;51.146;16.986;2024-03-29T00:40:37;8.60;1.00
10443;DHT22;5269;51.146;16.986;2024-03-29T00:43:04;8.60;1.00
10443;DHT22;5269;51.146;16.986;2024-03-29T00:45:31;8.50;1.00
10443;DHT22;5269;51.146;16.986;2024-03-29T00:48:01;8.50;1.00
10443;DHT22;5269;51.146;16.986;2024-03-29T00:50:28;8.60;1.00
10443;DHT22;5269;51.146;16.986;2024-03-29T00:52:55;8.60;1.00
10443;DHT22;5269;51.146;16.986;2024-03-29T00:55:22;8.50;1.00
10443;DHT22;5269;51.146;16.986;2024-03-29T00:57:50;8.50;1.00
10443;DHT22;5269;51.146;16.986;2024-03-29T01:00:17;8.50;1.00
10443;DHT22;5269;51.146;16.986;2024-03-29T01:02:44;8.40;1.00
10443;DHT22;5269;51.146;16.986;2024-03-29T02:26:32;8.10;95.40
10443;DHT22;5269;51.146;16.986;2024-03-29T02:28:59;8.10;1.00
10443;DHT22;5269;51.146;16.986;2024-03-29T02:31:26;8.10;1.00
10443;DHT22;5269;51.146;16.986;2024-03-29T02:33:53;8.00;1.00
10443;DHT22;5269;51.146;16.986;2024-03-29T02:36:21;8.00;1.00
10443;DHT22;5269;51.146;16.986;2024-03-29T02:38:47;7.90;1.00
10443;DHT22;5269;51.146;16.986;2024-03-29T02:41:17;8.00;1.00
10443;DHT22;5269;51.146;16.986;2024-03-29T02:43:45;8.00;1.00
10443;DHT22;5269;51.146;16.986;2024-03-29T02:46:12;7.90;1.00
10443;DHT22;5269;51.146;16.986;2024-03-29T02:48:39;7.90;1.00
10443;DHT22;5269;51.146;16.986;2024-03-29T02:51:06;7.90;1.00
10443;DHT22;5269;51.146;16.986;2024-03-29T02:53:33;8.00;1.00
10443;DHT22;5269;51.146;16.986;2024-03-29T02:56:00;8.10;1.00
10443;DHT22;5269;51.146;16.986;2024-03-29T02:58:30;8.10;1.00
10443;DHT22;5269;51.146;16.986;2024-03-29T03:00:57;8.00;1.00
10443;DHT22;5269;51.146;16.986;2024-03-29T03:03:31;8.00;1.00
10443;DHT22;5269;51.146;16.986;2024-03-29T03:05:58;7.90;1.00
10443;DHT22;5269;51.146;16.986;2024-03-29T03:08:26;8.00;1.00
10443;DHT22;5269;51.146;16.986;2024-03-29T03:11:08;7.90;1.00
10443;DHT22;5269;51.146;16.986;2024-03-29T03:13:38;7.90;1.00
10443;DHT22;5269;51.146;16.986;2024-03-29T03:16:05;7.80;1.00
10443;DHT22;5269;51.146;16.986;2024-03-29T03:18:32;7.80;1.00
10443;DHT22;5269;51.146;16.986;2024-03-29T03:20:59;7.90;1.00
10443;DHT22;5269;51.146;16.986;2024-03-29T03:23:26;7.80;1.00
10443;DHT22;5269;51.146;16.986;2024-03-29T03:25:54;7.70;1.00
10443;DHT22;5269;51.146;16.986;2024-03-29T03:28:22;7.80;1.00
10443;DHT22;5269;51.146;16.986;2024-03-29T03:30:53;7.70;1.00
10443;DHT22;5269;51.146;16.986;2024-03-29T03:33:21;7.60;1.00
10443;DHT22;5269;51.146;16.986;2024-03-29T03:35:48;7.60;1.00
10443;DHT22;5269;51.146;16.986;2024-03-29T03:38:15;7.60;1.00
10443;DHT22;5269;51.146;16.986;2024-03-29T03:40:43;7.50;1.00
10443;DHT22;5269;51.146;16.986;2024-03-29T03:43:10;7.40;1.00
10443;DHT22;5269;51.146;16.986;2024-03-29T03:45:38;7.40;1.00
10443;DHT22;5269;51.146;16.986;2024-03-29T03:48:10;7.30;1.00
10443;DHT22;5269;51.146;16.986;2024-03-29T03:50:37;7.30;1.00
10443;DHT22;5269;51.146;16.986;2024-03-29T03:53:04;7.60;1.00
10443;DHT22;5269;51.146;16.986;2024-03-29T03:55:35;7.20;1.00
10443;DHT22;5269;51.146;16.986;2024-03-29T03:58:03;7.20;1.00
10443;DHT22;5269;51.146;16.986;2024-03-29T04:00:30;7.10;1.00
10443;DHT22;5269;51.146;16.986;2024-03-29T04:02:57;7.10;1.00
10443;DHT22;5269;51.146;16.986;2024-03-29T04:05:27;7.20;1.00
10443;DHT22;5269;51.146;16.986;2024-03-29T04:07:54;7.10;1.00
10443;DHT22;5269;51.146;16.986;2024-03-29T04:10:21;7.10;1.00
10443;DHT22;5269;51.146;16.986;2024-03-29T04:12:50;7.10;1.00
10443;DHT22;5269;51.146;16.986;2024-03-29T04:15:17;7.10;1.00
10443;DHT22;5269;51.146;16.986;2024-03-29T04:17:45;7.10;1.00
10443;DHT22;5269;51.146;16.986;2024-03-29T04:20:12;7.10;1.00
10443;DHT22;5269;51.146;16.986;2024-03-29T04:22:42;7.10;1.00
10443;DHT22;5269;51.146;16.986;2024-03-29T04:25:10;7.10;1.00
10443;DHT22;5269;51.146;16.986;2024-03-29T04:27:38;7.10;1.00
10443;DHT22;5269;51.146;16.986;2024-03-29T04:30:06;7.10;1.00
10443;DHT22;5269;51.146;16.986;2024-03-29T04:32:33;7.10;1.00
10443;DHT22;5269;51.146;16.986;2024-03-29T04:35:00;7.10;1.00
10443;DHT22;5269;51.146;16.986;2024-03-29T04:37:27;7.10;1.00
10443;DHT22;5269;51.146;16.986;2024-03-29T04:39:57;7.10;1.00
10443;DHT22;5269;51.146;16.986;2024-03-29T04:42:24;7.10;1.00
10443;DHT22;5269;51.146;16.986;2024-03-29T04:44:52;7.20;1.00
10443;DHT22;5269;51.146;16.986;2024-03-29T04:47:19;7.30;1.00
10443;DHT22;5269;51.146;16.986;2024-03-29T04:49:46;7.30;1.00
10443;DHT22;5269;51.146;16.986;2024-03-29T04:52:14;7.30;1.00
10443;DHT22;5269;51.146;16.986;2024-03-29T04:54:41;7.30;1.00
10443;DHT22;5269;51.146;16.986;2024-03-29T04:57:11;7.40;1.00
10443;DHT22;5269;51.146;16.986;2024-03-29T04:59:38;7.40;1.00
10443;DHT22;5269;51.146;16.986;2024-03-29T05:02:06;7.40;1.00
10443;DHT22;5269;51.146;16.986;2024-03-29T05:04:33;7.40;1.00
10443;DHT22;5269;51.146;16.986;2024-03-29T05:07:00;7.50;1.00
10443;DHT22;5269;51.146;16.986;2024-03-29T05:09:27;7.40;1.00
10443;DHT22;5269;51.146;16.986;2024-03-29T05:11:54;7.50;1.00
10443;DHT22;5269;51.146;16.986;2024-03-29T05:14:24;7.50;1.00
10443;DHT22;5269;51.146;16.986;2024-03-29T05:16:52;7.50;1.00
10443;DHT22;5269;51.146;16.986;2024-03-29T05:19:19;7.40;1.00
10443;DHT22;5269;51.146;16.986;2024-03-29T05:21:46;7.60;1.00
10443;DHT22;5269;51.146;16.986;2024-03-29T05:24:13;7.40;1.00
10443;DHT22;5269;51.146;16.986;2024-03-29T05:26:41;7.40;1.00
10443;DHT22;5269;51.146;16.986;2024-03-29T05:29:08;7.40;1.00
10443;DHT22;5269;51.146;16.986;2024-03-29T05:31:38;7.50;1.00
10443;DHT22;5269;51.146;16.986;2024-03-29T05:34:05;7.60;1.00
10443;DHT22;5269;51.146;16.986;2024-03-29T05:36:32;7.80;1.00
10443;DHT22;5269;51.146;16.986;2024-03-29T05:39:00;7.80;1.00
10443;DHT22;5269;51.146;16.986;2024-03-29T05:41:27;7.90;1.00
10443;DHT22;5269;51.146;16.986;2024-03-29T05:43:54;8.00;1.00
10443;DHT22;5269;51.146;16.986;2024-03-29T05:46:21;8.10;1.00
10443;DHT22;5269;51.146;16.986;2024-03-29T05:48:51;8.10;1.00
10443;DHT22;5269;51.146;16.986;2024-03-29T05:51:18;8.20;1.00
10443;DHT22;5269;51.146;16.986;2024-03-29T05:53:45;8.40;1.00
10443;DHT22;5269;51.146;16.986;2024-03-29T05:56:13;8.30;1.00
10443;DHT22;5269;51.146;16.986;2024-03-29T05:58:40;8.30;1.00
10443;DHT22;5269;51.146;16.986;2024-03-29T06:01:07;8.40;1.00
10443;DHT22;5269;51.146;16.986;2024-03-29T06:03:34;8.30;1.00
10443;DHT22;5269;51.146;16.986;2024-03-29T06:06:04;8.50;1.00
10443;DHT22;5269;51.146;16.986;2024-03-29T06:08:31;8.50;1.00
10443;DHT22;5269;51.146;16.986;2024-03-29T06:10:58;8.70;1.00
10443;DHT22;5269;51.146;16.986;2024-03-29T06:13:26;8.80;1.00
10443;DHT22;5269;51.146;16.986;2024-03-29T06:15:56;8.90;1.00
10443;DHT22;5269;51.146;16.986;2024-03-29T06:18:38;9.00;1.00
10443;DHT22;5269;51.146;16.986;2024-03-29T06:21:09;9.00;1.00
10443;DHT22;5269;51.146;16.986;2024-03-29T06:23:36;9.10;1.00
10443;DHT22;5269;51.146;16.986;2024-03-29T06:26:04;9.20;1.00
10443;DHT22;5269;51.146;16.986;2024-03-29T06:28:31;9.30;1.00
10443;DHT22;5269;51.146;16.986;2024-03-29T06:30:58;9.40;1.00
10443;DHT22;5269;51.146;16.986;2024-03-29T06:33:26;9.50;1.00
10443;DHT22;5269;51.146;16.986;2024-03-29T06:35:56;9.50;1.00
10443;DHT22;5269;51.146;16.986;2024-03-29T06:38:26;9.50;1.00
10443;DHT22;5269;51.146;16.986;2024-03-29T06:40:53;9.70;1.00
10443;DHT22;5269;51.146;16.986;2024-03-29T06:43:20;9.60;99.90
10443;DHT22;5269;51.146;16.986;2024-03-29T06:45:47;9.60;99.90
10443;DHT22;5269;51.146;16.986;2024-03-29T06:48:13;9.70;99.90
10443;DHT22;5269;51.146;16.986;2024-03-29T06:50:41;9.80;99.90
10443;DHT22;5269;51.146;16.986;2024-03-29T06:53:08;9.90;99.90
10443;DHT22;5269;51.146;16.986;2024-03-29T06:55:37;10.00;99.90
10443;DHT22;5269;51.146;16.986;2024-03-29T06:58:04;10.10;99.90
10443;DHT22;5269;51.146;16.986;2024-03-29T07:00:31;10.20;99.90
10443;DHT22;5269;51.146;16.986;2024-03-29T07:02:58;10.60;1.00
10443;DHT22;5269;51.146;16.986;2024-03-29T07:05:24;10.20;1.00
10443;DHT22;5269;51.146;16.986;2024-03-29T07:07:51;10.70;99.90
10443;DHT22;5269;51.146;16.986;2024-03-29T07:10:18;11.00;99.90
10443;DHT22;5269;51.146;16.986;2024-03-29T07:12:50;11.20;1.00
10443;DHT22;5269;51.146;16.986;2024-03-29T07:15:19;12.20;1.00
10443;DHT22;5269;51.146;16.986;2024-03-29T07:17:46;11.40;1.00
10443;DHT22;5269;51.146;16.986;2024-03-29T07:20:12;11.40;1.00
10443;DHT22;5269;51.146;16.986;2024-03-29T07:22:41;11.50;1.00
10443;DHT22;5269;51.146;16.986;2024-03-29T07:25:08;11.40;1.00
10443;DHT22;5269;51.146;16.986;2024-03-29T07:28:04;11.60;1.00
10443;DHT22;5269;51.146;16.986;2024-03-29T07:30:35;11.60;1.00
10443;DHT22;5269;51.146;16.986;2024-03-29T07:33:04;11.60;1.00
10443;DHT22;5269;51.146;16.986;2024-03-29T07:35:38;11.70;1.00
10443;DHT22;5269;51.146;16.986;2024-03-29T07:38:15;11.80;1.00
10443;DHT22;5269;51.146;16.986;2024-03-29T07:40:43;11.70;1.00
10443;DHT22;5269;51.146;16.986;2024-03-29T07:43:10;11.40;1.00
10443;DHT22;5269;51.146;16.986;2024-03-29T07:45:40;11.30;1.00
10443;DHT22;5269;51.146;16.986;2024-03-29T07:48:09;11.60;1.00
10443;DHT22;5269;51.146;16.986;2024-03-29T07:50:36;11.50;1.00
10443;DHT22;5269;51.146;16.986;2024-03-29T07:53:03;11.70;1.00
10443;DHT22;5269;51.146;16.986;2024-03-29T07:55:30;12.00;1.00
10443;DHT22;5269;51.146;16.986;2024-03-29T07:57:56;11.80;1.00
10443;DHT22;5269;51.146;16.986;2024-03-29T08:00:23;11.70;1.00
10443;DHT22;5269;51.146;16.986;2024-03-29T08:02:52;11.80;1.00
10443;DHT22;5269;51.146;16.986;2024-03-29T08:05:20;12.10;1.00
10443;DHT22;5269;51.146;16.986;2024-03-29T08:07:46;12.50;1.00
10443;DHT22;5269;51.146;16.986;2024-03-29T08:10:13;12.60;1.00
10443;DHT22;5269;51.146;16.986;2024-03-29T08:12:40;12.80;1.00
10443;DHT22;5269;51.146;16.986;2024-03-29T08:15:09;12.70;1.00
10443;DHT22;5269;51.146;16.986;2024-03-29T08:17:36;12.60;1.00
10443;DHT22;5269;51.146;16.986;2024-03-29T08:20:06;12.40;1.00
10443;DHT22;5269;51.146;16.986;2024-03-29T08:22:33;12.60;1.00
10443;DHT22;5269;51.146;16.986;2024-03-29T08:25:00;12.90;1.00
10443;DHT22;5269;51.146;16.986;2024-03-29T08:27:26;12.90;1.00
10443;DHT22;5269;51.146;16.986;2024-03-29T08:32:20;13.00;1.00
10443;DHT22;5269;51.146;16.986;2024-03-29T08:37:16;13.50;1.00
10443;DHT22;5269;51.146;16.986;2024-03-29T08:39:43;13.60;1.00
10443;DHT22;5269;51.146;16.986;2024-03-29T08:42:09;13.60;1.00
10443;DHT22;5269;51.146;16.986;2024-03-29T08:47:04;13.40;1.00
10443;DHT22;5269;51.146;16.986;2024-03-29T08:49:30;13.60;1.00
10443;DHT22;5269;51.146;16.986;2024-03-29T08:51:57;13.70;1.00
10443;DHT22;5269;51.146;16.986;2024-03-29T08:54:26;13.90;1.00
10443;DHT22;5269;51.146;16.986;2024-03-29T08:56:53;14.10;1.00
10443;DHT22;5269;51.146;16.986;2024-03-29T08:59:20;14.50;1.00
10443;DHT22;5269;51.146;16.986;2024-03-29T09:01:47;14.40;1.00
10443;DHT22;5269;51.146;16.986;2024-03-29T09:04:14;14.20;1.00
10443;DHT22;5269;51.146;16.986;2024-03-29T09:06:41;14.00;1.00
10443;DHT22;5269;51.146;16.986;2024-03-29T09:09:08;14.40;1.00
10443;DHT22;5269;51.146;16.986;2024-03-29T09:11:37;14.60;1.00
10443;DHT22;5269;51.146;16.986;2024-03-29T09:14:04;14.50;1.00
10443;DHT22;5269;51.146;16.986;2024-03-29T09:16:31;14.60;1.00
10443;DHT22;5269;51.146;16.986;2024-03-29T09:18:57;14.60;1.00
10443;DHT22;5269;51.146;16.986;2024-03-29T09:21:24;14.90;1.00
10443;DHT22;5269;51.146;16.986;2024-03-29T09:23:54;15.20;1.00
10443;DHT22;5269;51.146;16.986;2024-03-29T09:26:21;14.80;1.00
10443;DHT22;5269;51.146;16.986;2024-03-29T09:28:50;14.90;1.00
10443;DHT22;5269;51.146;16.986;2024-03-29T09:31:17;15.10;1.00
10443;DHT22;5269;51.146;16.986;2024-03-29T09:33:44;15.40;1.00
10443;DHT22;5269;51.146;16.986;2024-03-29T09:36:13;15.20;1.00
10443;DHT22;5269;51.146;16.986;2024-03-29T09:38:40;15.50;1.00
10443;DHT22;5269;51.146;16.986;2024-03-29T09:41:11;15.60;1.00
10443;DHT22;5269;51.146;16.986;2024-03-29T09:43:42;15.50;1.00
10443;DHT22;5269;51.146;16.986;2024-03-29T09:46:12;15.90;1.00
10443;DHT22;5269;51.146;16.986;2024-03-29T09:48:40;15.90;1.00
10443;DHT22;5269;51.146;16.986;2024-03-29T09:51:08;16.10;1.00
10443;DHT22;5269;51.146;16.986;2024-03-29T09:53:36;16.20;1.00
10443;DHT22;5269;51.146;16.986;2024-03-29T09:56:04;16.30;1.00
10443;DHT22;5269;51.146;16.986;2024-03-29T09:58:31;16.20;1.00
10443;DHT22;5269;51.146;16.986;2024-03-29T10:00:59;16.40;1.00
10443;DHT22;5269;51.146;16.986;2024-03-29T10:03:29;16.60;1.00
10443;DHT22;5269;51.146;16.986;2024-03-29T10:05:57;16.40;1.00
10443;DHT22;5269;51.146;16.986;2024-03-29T10:08:29;16.50;1.00
10443;DHT22;5269;51.146;16.986;2024-03-29T10:10:56;16.00;1.00
10443;DHT22;5269;51.146;16.986;2024-03-29T10:13:24;16.20;1.00
10443;DHT22;5269;51.146;16.986;2024-03-29T10:15:52;16.40;1.00
10443;DHT22;5269;51.146;16.986;2024-03-29T10:18:19;16.40;1.00
10443;DHT22;5269;51.146;16.986;2024-03-29T10:20:58;16.50;1.00
10443;DHT22;5269;51.146;16.986;2024-03-29T10:23:25;16.40;1.00
10443;DHT22;5269;51.146;16.986;2024-03-29T10:25:53;16.60;1.00
10443;DHT22;5269;51.146;16.986;2024-03-29T10:28:20;16.50;1.00
10443;DHT22;5269;51.146;16.986;2024-03-29T10:30:47;16.60;1.00
10443;DHT22;5269;51.146;16.986;2024-03-29T10:33:15;16.60;1.00
10443;DHT22;5269;51.146;16.986;2024-03-29T10:38:12;16.80;1.00
10443;DHT22;5269;51.146;16.986;2024-03-29T10:40:40;16.50;1.00
10443;DHT22;5269;51.146;16.986;2024-03-29T10:43:08;16.70;1.00
10443;DHT22;5269;51.146;16.986;2024-03-29T10:45:37;16.80;1.00
10443;DHT22;5269;51.146;16.986;2024-03-29T10:48:05;17.00;1.00
10443;DHT22;5269;51.146;16.986;2024-03-29T10:50:34;17.00;1.00
10443;DHT22;5269;51.146;16.986;2024-03-29T10:53:02;17.10;1.00
10443;DHT22;5269;51.146;16.986;2024-03-29T10:55:33;17.20;1.00
10443;DHT22;5269;51.146;16.986;2024-03-29T10:58:01;17.10;1.00
10443;DHT22;5269;51.146;16.986;2024-03-29T11:00:29;17.20;1.00
10443;DHT22;5269;51.146;16.986;2024-03-29T11:03:02;17.30;1.00
10443;DHT22;5269;51.146;16.986;2024-03-29T11:05:32;16.90;1.00
10443;DHT22;5269;51.146;16.986;2024-03-29T11:08:02;16.90;1.00
10443;DHT22;5269;51.146;16.986;2024-03-29T11:10:34;16.90;1.00
10443;DHT22;5269;51.146;16.986;2024-03-29T11:13:05;17.00;1.00
10443;DHT22;5269;51.146;16.986;2024-03-29T11:15:38;17.30;1.00
10443;DHT22;5269;51.146;16.986;2024-03-29T11:18:07;17.30;1.00
10443;DHT22;5269;51.146;16.986;2024-03-29T11:20:36;17.00;1.00
10443;DHT22;5269;51.146;16.986;2024-03-29T11:23:06;17.20;1.00
10443;DHT22;5269;51.146;16.986;2024-03-29T11:25:48;17.10;1.00
10443;DHT22;5269;51.146;16.986;2024-03-29T11:30:51;16.80;1.00
10443;DHT22;5269;51.146;16.986;2024-03-29T11:36:18;17.10;1.00
10443;DHT22;5269;51.146;16.986;2024-03-29T11:38:46;17.20;1.00
10443;DHT22;5269;51.146;16.986;2024-03-29T11:41:17;17.10;1.00
10443;DHT22;5269;51.146;16.986;2024-03-29T11:43:46;17.30;1.00
10443;DHT22;5269;51.146;16.986;2024-03-29T11:48:42;16.90;1.00
10443;DHT22;5269;51.146;16.986;2024-03-29T18:17:50;15.60;1.00
10443;DHT22;5269;51.146;16.986;2024-03-29T18:20:17;15.80;1.00
10443;DHT22;5269;51.146;16.986;2024-03-29T18:22:45;15.80;1.00
10443;DHT22;5269;51.146;16.986;2024-03-29T18:25:12;15.70;1.00
10443;DHT22;5269;51.146;16.986;2024-03-29T18:27:39;16.00;1.00
10443;DHT22;5269;51.146;16.986;2024-03-29T18:30:11;15.60;1.00
10443;DHT22;5269;51.146;16.986;2024-03-29T18:32:38;15.40;1.00
10443;DHT22;5269;51.146;16.986;2024-03-29T18:35:06;15.40;1.00
10443;DHT22;5269;51.146;16.986;2024-03-29T18:37:33;15.40;1.00
10443;DHT22;5269;51.146;16.986;2024-03-29T18:40:01;15.40;1.00
10443;DHT22;5269;51.146;16.986;2024-03-29T18:42:28;15.20;1.00
10443;DHT22;5269;51.146;16.986;2024-03-29T18:44:55;15.20;1.00
10443;DHT22;5269;51.146;16.986;2024-03-29T18:47:25;15.20;1.00
10443;DHT22;5269;51.146;16.986;2024-03-29T18:49:53;15.10;1.00
10443;DHT22;5269;51.146;16.986;2024-03-29T18:52:21;15.00;1.00
10443;DHT22;5269;51.146;16.986;2024-03-29T18:54:48;15.00;1.00
10443;DHT22;5269;51.146;16.986;2024-03-29T18:57:15;14.90;1.00
10443;DHT22;5269;51.146;16.986;2024-03-29T18:59:42;14.90;1.00
10443;DHT22;5269;51.146;16.986;2024-03-29T19:02:09;14.90;1.00
10443;DHT22;5269;51.146;16.986;2024-03-29T19:04:39;15.00;1.00
10443;DHT22;5269;51.146;16.986;2024-03-29T19:07:06;15.10;1.00
10443;DHT22;5269;51.146;16.986;2024-03-29T19:09:33;15.30;1.00
10443;DHT22;5269;51.146;16.986;2024-03-29T19:12:00;15.40;1.00
10443;DHT22;5269;51.146;16.986;2024-03-29T19:14:27;15.30;1.00
10443;DHT22;5269;51.146;16.986;2024-03-29T19:16:54;15.30;1.00
10443;DHT22;5269;51.146;16.986;2024-03-29T19:19:22;15.30;1.00
10443;DHT22;5269;51.146;16.986;2024-03-29T19:21:53;15.30;1.00
10443;DHT22;5269;51.146;16.986;2024-03-29T19:24:19;15.30;1.00
10443;DHT22;5269;51.146;16.986;2024-03-29T19:26:50;15.30;1.00
10443;DHT22;5269;51.146;16.986;2024-03-29T19:29:17;15.20;1.00
10443;DHT22;5269;51.146;16.986;2024-03-29T19:31:44;15.20;1.00
10443;DHT22;5269;51.146;16.986;2024-03-29T19:34:11;15.10;1.00
10443;DHT22;5269;51.146;16.986;2024-03-29T19:36:39;15.10;1.00
10443;DHT22;5269;51.146;16.986;2024-03-29T19:39:08;15.00;1.00
10443;DHT22;5269;51.146;16.986;2024-03-29T19:41:36;15.00;1.00
10443;DHT22;5269;51.146;16.986;2024-03-29T19:44:03;14.90;1.00
10443;DHT22;5269;51.146;16.986;2024-03-29T19:46:31;14.70;1.00
10443;DHT22;5269;51.146;16.986;2024-03-29T19:48:59;14.90;1.00
10443;DHT22;5269;51.146;16.986;2024-03-29T19:51:26;14.60;1.00
10443;DHT22;5269;51.146;16.986;2024-03-29T19:53:53;14.60;1.00
10443;DHT22;5269;51.146;16.986;2024-03-29T19:56:23;14.50;1.00
10443;DHT22;5269;51.146;16.986;2024-03-29T19:58:51;14.30;1.00
10443;DHT22;5269;51.146;16.986;2024-03-29T20:01:18;14.40;1.00
10443;DHT22;5269;51.146;16.986;2024-03-29T20:03:45;14.20;1.00
10443;DHT22;5269;51.146;16.986;2024-03-29T20:06:12;14.10;1.00
10443;DHT22;5269;51.146;16.986;2024-03-29T20:08:40;14.10;1.00
10443;DHT22;5269;51.146;16.986;2024-03-29T20:11:12;14.00;1.00
10443;DHT22;5269;51.146;16.986;2024-03-29T20:13:42;14.10;1.00
10443;DHT22;5269;51.146;16.986;2024-03-29T20:16:09;14.10;1.00
10443;DHT22;5269;51.146;16.986;2024-03-29T20:18:37;14.10;1.00
10443;DHT22;5269;51.146;16.986;2024-03-29T20:21:04;14.10;1.00
10443;DHT22;5269;51.146;16.986;2024-03-29T20:23:33;14.10;1.00
10443;DHT22;5269;51.146;16.986;2024-03-29T20:26:00;14.10;1.00
10443;DHT22;5269;51.146;16.986;2024-03-29T20:28:28;14.00;1.00
10443;DHT22;5269;51.146;16.986;2024-03-29T20:31:00;14.10;1.00
10443;DHT22;5269;51.146;16.986;2024-03-29T20:33:27;14.30;1.00
10443;DHT22;5269;51.146;16.986;2024-03-29T20:35:54;14.20;1.00
10443;DHT22;5269;51.146;16.986;2024-03-29T20:38:21;14.20;1.00
10443;DHT22;5269;51.146;16.986;2024-03-29T20:40:49;14.10;1.00
10443;DHT22;5269;51.146;16.986;2024-03-29T20:43:16;14.10;1.00
10443;DHT22;5269;51.146;16.986;2024-03-29T20:45:43;14.00;1.00
10443;DHT22;5269;51.146;16.986;2024-03-29T20:48:13;14.10;1.00
10443;DHT22;5269;51.146;16.986;2024-03-29T20:50:40;14.00;1.00
10443;DHT22;5269;51.146;16.986;2024-03-29T20:53:08;14.10;1.00
10443;DHT22;5269;51.146;16.986;2024-03-29T20:55:35;14.10;1.00
10443;DHT22;5269;51.146;16.986;2024-03-29T20:58:03;14.10;1.00
10443;DHT22;5269;51.146;16.986;2024-03-29T21:00:30;14.00;1.00
10443;DHT22;5269;51.146;16.986;2024-03-29T21:02:57;14.10;1.00
10443;DHT22;5269;51.146;16.986;2024-03-29T21:05:43;14.30;1.00
10443;DHT22;5269;51.146;16.986;2024-03-29T21:08:10;13.80;1.00
10443;DHT22;5269;51.146;16.986;2024-03-29T21:10:37;13.80;1.00
10443;DHT22;5269;51.146;16.986;2024-03-29T21:13:04;13.80;1.00
10443;DHT22;5269;51.146;16.986;2024-03-29T21:15:31;13.80;1.00
10443;DHT22;5269;51.146;16.986;2024-03-29T21:17:59;13.90;1.00
10443;DHT22;5269;51.146;16.986;2024-03-29T21:20:27;13.60;1.00
10443;DHT22;5269;51.146;16.986;2024-03-29T21:22:58;13.80;1.00
10443;DHT22;5269;51.146;16.986;2024-03-29T21:25:26;13.60;1.00
10443;DHT22;5269;51.146;16.986;2024-03-29T21:27:53;13.50;1.00
10443;DHT22;5269;51.146;16.986;2024-03-29T21:30:21;13.50;1.00
10443;DHT22;5269;51.146;16.986;2024-03-29T21:32:48;14.00;1.00
10443;DHT22;5269;51.146;16.986;2024-03-29T21:35:15;13.60;1.00
10443;DHT22;5269;51.146;16.986;2024-03-29T21:37:42;13.60;1.00
10443;DHT22;5269;51.146;16.986;2024-03-29T21:40:14;13.60;1.00
10443;DHT22;5269;51.146;16.986;2024-03-29T21:42:41;13.70;1.00
10443;DHT22;5269;51.146;16.986;2024-03-29T21:45:09;13.80;1.00
10443;DHT22;5269;51.146;16.986;2024-03-29T21:47:36;13.60;1.00
10443;DHT22;5269;51.146;16.986;2024-03-29T21:50:04;13.40;1.00
10443;DHT22;5269;51.146;16.986;2024-03-29T21:52:32;13.40;1.00
10443;DHT22;5269;51.146;16.986;2024-03-29T21:54:59;13.40;1.00
10443;DHT22;5269;51.146;16.986;2024-03-29T21:57:29;13.40;1.00
10443;DHT22;5269;51.146;16.986;2024-03-29T21:59:57;13.40;1.00
10443;DHT22;5269;51.146;16.986;2024-03-29T22:02:24;13.70;1.00
10443;DHT22;5269;51.146;16.986;2024-03-29T22:04:51;13.40;1.00
10443;DHT22;5269;51.146;16.986;2024-03-29T22:07:18;13.20;1.00
10443;DHT22;5269;51.146;16.986;2024-03-29T22:09:45;13.30;1.00
10443;DHT22;5269;51.146;16.986;2024-03-29T22:12:13;13.30;1.00
10443;DHT22;5269;51.146;16.986;2024-03-29T22:14:42;13.40;1.00
10443;DHT22;5269;51.146;16.986;2024-03-29T22:17:10;13.30;1.00
10443;DHT22;5269;51.146;16.986;2024-03-29T22:19:37;13.30;1.00
10443;DHT22;5269;51.146;16.986;2024-03-29T22:22:05;13.20;1.00
10443;DHT22;5269;51.146;16.986;2024-03-29T22:24:33;13.30;1.00
10443;DHT22;5269;51.146;16.986;2024-03-29T22:27:00;13.60;1.00
10443;DHT22;5269;51.146;16.986;2024-03-29T22:29:27;13.30;1.00
10443;DHT22;5269;51.146;16.986;2024-03-29T22:31:58;13.30;1.00
10443;DHT22;5269;51.146;16.986;2024-03-29T22:34:25;13.30;1.00
10443;DHT22;5269;51.146;16.986;2024-03-29T22:36:55;13.30;1.00
10443;DHT22;5269;51.146;16.986;2024-03-29T22:39:22;13.20;1.00
10443;DHT22;5269;51.146;16.986;2024-03-29T22:41:50;12.80;1.00
10443;DHT22;5269;51.146;16.986;2024-03-29T22:44:17;13.40;1.00
10443;DHT22;5269;51.146;16.986;2024-03-29T22:46:44;13.20;1.00
10443;DHT22;5269;51.146;16.986;2024-03-29T22:49:13;13.30;1.00
10443;DHT22;5269;51.146;16.986;2024-03-29T22:51:41;13.20;1.00
10443;DHT22;5269;51.146;16.986;2024-03-29T22:54:08;13.20;1.00
10443;DHT22;5269;51.146;16.986;2024-03-29T22:56:35;13.10;1.00
10443;DHT22;5269;51.146;16.986;2024-03-29T22:59:03;13.10;1.00
10443;DHT22;5269;51.146;16.986;2024-03-29T23:01:30;13.00;1.00
10443;DHT22;5269;51.146;16.986;2024-03-29T23:03:57;13.10;1.00
10443;DHT22;5269;51.146;16.986;2024-03-29T23:06:26;13.00;1.00
10443;DHT22;5269;51.146;16.986;2024-03-29T23:08:54;12.90;1.00
10443;DHT22;5269;51.146;16.986;2024-03-29T23:11:21;13.10;1.00
10443;DHT22;5269;51.146;16.986;2024-03-29T23:13:48;12.90;1.00
10443;DHT22;5269;51.146;16.986;2024-03-29T23:16:15;12.90;1.00
10443;DHT22;5269;51.146;16.986;2024-03-29T23:18:42;12.90;1.00
10443;DHT22;5269;51.146;16.986;2024-03-29T23:21:10;12.90;1.00
10443;DHT22;5269;51.146;16.986;2024-03-29T23:23:40;12.70;1.00
10443;DHT22;5269;51.146;16.986;2024-03-29T23:26:07;12.70;1.00
10443;DHT22;5269;51.146;16.986;2024-03-29T23:28:36;12.70;1.00
10443;DHT22;5269;51.146;16.986;2024-03-29T23:31:04;12.70;1.00
10443;DHT22;5269;51.146;16.986;2024-03-29T23:33:31;12.60;1.00
10443;DHT22;5269;51.146;16.986;2024-03-29T23:35:58;12.60;1.00
10443;DHT22;5269;51.146;16.986;2024-03-29T23:38:25;12.50;1.00
10443;DHT22;5269;51.146;16.986;2024-03-29T23:40:57;12.40;1.00
10443;DHT22;5269;51.146;16.986;2024-03-29T23:43:25;12.90;1.00
10443;DHT22;5269;51.146;16.986;2024-03-29T23:45:58;12.40;40.00
10443;DHT22;5269;51.146;16.986;2024-03-29T23:48:26;12.40;57.90
10443;DHT22;5269;51.146;16.986;2024-03-29T23:50:53;12.30;69.20
10443;DHT22;5269;51.146;16.986;2024-03-29T23:53:21;12.40;99.90
10443;DHT22;5269;51.146;16.986;2024-03-29T23:55:52;12.20;99.90
10443;DHT22;5269;51.146;16.986;2024-03-29T23:58:23;12.20;99.90
